Franklin Grove, IL

9:36 AM CST on December 22, 2014 (GMT -0600)
Lost Lake Ogle County, Illinois | Change Station
CLOSE
Current Station
Personal Weather Station
Location: Dixon, IL
Elevation: 761 ft
Nearby Weather Stations

Elev 761 ft 41.91 °N, 89.35 °W | Updated 0 second ago

Overcast
Overcast
33.0 °F
Feels Like 29 °F
N
4.0
Wind Variable Wind from ENE
Gusts 11.0 mph

Today
High -- | Low -- °F
--% Chance of Precip.
Yesterday
High -- | Low -- °F
Precip. -- in
7:21 AM 4:29 PM
New Moon, 0% visible
Pressure 29.84 in
Visibility 4.0 miles
Clouds Overcast 6000 ft
Windchill 29 °F
Dew Point 31 °F
Humidity 92%
Rainfall 0.00 in
Snow Depth Not available.
UV 0 out of 12
Pollen .10 out of 12
Air Quality Not available.
Flu Activity Not available.
METAR KRPJ 221515Z AUTO 12009KT 4SM BR OVC060 00/M01 A2984 RMK AO2 T00001010

More Conditions Fewer Conditions

Pressure 29.84 in
Visibility 4.0 miles
Clouds Overcast 6000 ft
Windchill 29 °F
Dew Point 31 °F
Humidity 92%
Rainfall 0.00 in
Snow Depth Not available.
UV 0 out of 12
Pollen .10 out of 12
Air Quality Not available.
Flu Activity Not available.
METAR KRPJ 221515Z AUTO 12009KT 4SM BR OVC060 00/M01 A2984 RMK AO2 T00001010

More Conditions Fewer Conditions

10-Day Weather Forecast

Almanac

Astronomy

Dec. 22, 2014 Rise Set
Actual Time
Civil Twilight
Nautical Twilight
Astronomical Twilight
Moon
Length of Visible Light
Length of Day
Tomorrow will be .
, % of the Moon is Illuminated

Today's Extremes

State Highs State Lows

Community

WunderPhotos

Upload Photos

1,779,619 photos uploaded!

WunderBlogs® & News

Nearby

Air Quality

  Air Quality AQ Index Pollutant
Not available.

Snow Depth

Station Depth Elevation

Earthquake Activity

City Distance Mag. Time & Date
Minimum magnitude displayed is 2.5.

Coastal Water Temperatures

Place Temperature

Nearby Weather Stations